createdAt,value
2017-12-01T00:01:57.011Z,4.90
2017-12-01T00:04:24.613Z,4.90
2017-12-01T00:06:52.059Z,4.90
2017-12-01T00:09:19.520Z,4.90
2017-12-01T00:11:47.109Z,4.90
2017-12-01T00:14:15.931Z,4.80
2017-12-01T00:16:43.973Z,4.80
2017-12-01T00:19:12.721Z,4.80
2017-12-01T00:21:40.180Z,4.80
2017-12-01T00:24:07.742Z,4.80
2017-12-01T00:26:35.553Z,4.80
2017-12-01T00:29:03.460Z,4.80
2017-12-01T00:31:31.402Z,4.90
2017-12-01T00:33:58.859Z,4.90
2017-12-01T00:36:26.852Z,4.90
2017-12-01T00:38:54.293Z,5.00
2017-12-01T00:41:21.769Z,5.00
2017-12-01T00:43:49.595Z,5.00
2017-12-01T00:46:17.061Z,5.10
2017-12-01T00:48:44.857Z,5.10
2017-12-01T00:51:12.516Z,5.10
2017-12-01T00:53:39.960Z,5.10
2017-12-01T00:56:07.604Z,5.10
2017-12-01T00:58:35.572Z,5.10
2017-12-01T01:01:03.042Z,5.10
2017-12-01T01:03:30.588Z,5.10
2017-12-01T01:05:58.191Z,5.10
2017-12-01T01:08:25.643Z,5.10
2017-12-01T01:10:53.161Z,5.00
2017-12-01T01:13:20.968Z,5.00
2017-12-01T01:15:48.415Z,5.00
2017-12-01T01:18:15.916Z,5.00
2017-12-01T01:20:43.396Z,5.00
2017-12-01T01:23:10.837Z,4.90
2017-12-01T01:25:38.895Z,5.00
2017-12-01T01:28:07.101Z,5.00
2017-12-01T01:30:34.922Z,4.90
2017-12-01T01:33:03.384Z,5.00
2017-12-01T01:35:30.820Z,4.90
2017-12-01T01:37:58.310Z,5.00
2017-12-01T01:40:26.163Z,4.90
2017-12-01T01:42:54.093Z,4.90
2017-12-01T01:45:21.648Z,4.90
2017-12-01T01:47:49.105Z,4.90
2017-12-01T01:50:16.664Z,5.00
2017-12-01T01:52:44.122Z,5.00
2017-12-01T01:55:11.592Z,5.00
2017-12-01T01:57:39.135Z,5.00
2017-12-01T02:00:06.649Z,4.90
2017-12-01T02:02:34.858Z,4.90
2017-12-01T02:05:02.327Z,4.90
2017-12-01T02:07:29.765Z,4.90
2017-12-01T02:09:57.249Z,4.90
2017-12-01T02:12:25.232Z,4.90
2017-12-01T02:14:52.699Z,5.00
2017-12-01T02:17:20.941Z,4.90
2017-12-01T02:19:48.492Z,4.90
2017-12-01T02:22:16.212Z,4.90
2017-12-01T02:24:44.562Z,4.80
2017-12-01T02:27:12.324Z,4.80
2017-12-01T02:29:40.300Z,4.90
2017-12-01T02:32:08.272Z,4.90
2017-12-01T02:34:35.795Z,4.90
2017-12-01T02:37:03.321Z,4.80
2017-12-01T02:39:31.558Z,4.90
2017-12-01T02:41:59.290Z,4.80
2017-12-01T02:44:27.394Z,4.90
2017-12-01T02:46:54.831Z,4.90
2017-12-01T02:49:23.327Z,4.90
2017-12-01T02:51:50.775Z,4.90
2017-12-01T02:54:18.541Z,4.90
2017-12-01T02:56:45.988Z,4.90
2017-12-01T02:59:13.460Z,4.90
2017-12-01T03:01:40.904Z,4.90
2017-12-01T03:04:08.477Z,4.90
2017-12-01T03:06:35.929Z,5.00
2017-12-01T03:09:03.769Z,4.90
2017-12-01T03:11:32.269Z,5.00
2017-12-01T03:13:59.799Z,5.00
2017-12-01T03:16:28.000Z,5.00
2017-12-01T03:18:55.477Z,4.90
2017-12-01T03:21:23.340Z,5.00
2017-12-01T03:23:50.809Z,4.90
2017-12-01T03:26:18.561Z,4.90
2017-12-01T03:28:46.089Z,4.90
2017-12-01T03:31:13.970Z,4.90
2017-12-01T03:33:41.442Z,4.80
2017-12-01T03:36:08.938Z,4.80
2017-12-01T03:38:37.159Z,4.70
2017-12-01T03:41:04.618Z,4.70
2017-12-01T03:43:32.906Z,4.80
2017-12-01T03:46:00.368Z,4.70
2017-12-01T03:48:28.031Z,4.70
2017-12-01T03:50:55.550Z,4.70
2017-12-01T03:53:23.008Z,4.70
2017-12-01T03:55:51.224Z,4.70
2017-12-01T03:58:18.692Z,4.70
2017-12-01T04:00:46.753Z,4.70
2017-12-01T04:03:14.406Z,4.70
2017-12-01T04:05:42.442Z,4.70
2017-12-01T04:08:09.896Z,4.70
2017-12-01T04:10:37.456Z,4.70
2017-12-01T04:13:05.277Z,4.70
2017-12-01T04:15:33.521Z,4.70
2017-12-01T04:18:00.969Z,4.70
2017-12-01T04:20:28.818Z,4.70
2017-12-01T04:22:56.404Z,4.70
2017-12-01T04:25:24.484Z,4.70
2017-12-01T04:27:51.962Z,4.70
2017-12-01T04:30:19.908Z,4.80
2017-12-01T04:32:48.179Z,4.80
2017-12-01T04:35:15.629Z,4.80
2017-12-01T04:37:43.113Z,4.80
2017-12-01T04:40:10.558Z,4.80
2017-12-01T04:42:40.110Z,4.80
2017-12-01T04:45:08.020Z,4.80
2017-12-01T04:47:35.553Z,4.80
2017-12-01T04:50:03.043Z,4.80
2017-12-01T04:52:30.520Z,4.80
2017-12-01T04:54:59.179Z,4.80
2017-12-01T04:57:26.621Z,4.80
2017-12-01T04:59:54.085Z,4.80
2017-12-01T05:02:22.068Z,4.80
2017-12-01T05:04:49.532Z,4.80
2017-12-01T05:07:17.004Z,4.80
2017-12-01T05:09:45.239Z,4.80
2017-12-01T05:12:12.823Z,4.80
2017-12-01T05:14:40.343Z,4.80
2017-12-01T05:17:07.924Z,4.90
2017-12-01T05:19:35.357Z,4.80
2017-12-01T05:22:02.840Z,4.90
2017-12-01T05:24:30.388Z,4.90
2017-12-01T05:26:58.364Z,4.90
2017-12-01T05:29:26.189Z,4.90
2017-12-01T05:31:54.310Z,4.90
2017-12-01T05:34:22.646Z,5.00
2017-12-01T05:36:50.665Z,5.00
2017-12-01T05:39:18.917Z,5.00
2017-12-01T05:41:46.394Z,5.00
2017-12-01T05:44:14.416Z,5.00
2017-12-01T05:46:41.874Z,5.00
2017-12-01T05:49:09.333Z,5.00
2017-12-01T05:51:36.790Z,5.00
2017-12-01T05:54:04.386Z,5.00
2017-12-01T05:56:31.952Z,5.00
2017-12-01T05:58:59.828Z,5.00
2017-12-01T06:01:28.234Z,4.90
2017-12-01T06:03:55.954Z,4.90
2017-12-01T06:06:23.388Z,4.90
2017-12-01T06:08:51.165Z,4.90
2017-12-01T06:11:18.621Z,4.90
2017-12-01T06:13:46.098Z,4.90
2017-12-01T06:16:13.643Z,4.90
2017-12-01T06:18:41.097Z,4.90
2017-12-01T06:21:08.606Z,4.90
2017-12-01T06:23:36.041Z,4.90
2017-12-01T06:26:04.332Z,4.90
2017-12-01T06:28:31.805Z,4.90
2017-12-01T06:30:59.475Z,4.90
2017-12-01T06:33:27.228Z,5.00
2017-12-01T06:35:54.681Z,5.10
2017-12-01T06:38:22.153Z,5.20
2017-12-01T06:40:49.621Z,5.10
2017-12-01T06:43:17.601Z,5.10
2017-12-01T06:45:45.043Z,5.10
2017-12-01T06:48:12.512Z,5.10
2017-12-01T06:50:40.161Z,5.00
2017-12-01T06:53:07.604Z,5.00
2017-12-01T06:55:35.129Z,5.00
2017-12-01T06:58:03.879Z,5.00
2017-12-01T07:00:31.340Z,4.90
2017-12-01T07:02:58.818Z,4.90
2017-12-01T07:05:27.037Z,4.90
2017-12-01T07:07:54.518Z,4.90
2017-12-01T07:10:22.005Z,4.90
2017-12-01T07:12:50.328Z,4.90
2017-12-01T07:15:18.944Z,4.90
2017-12-01T07:17:46.390Z,4.90
2017-12-01T07:20:13.848Z,4.90
2017-12-01T07:22:41.333Z,4.80
2017-12-01T07:25:10.202Z,4.80
2017-12-01T07:27:37.754Z,4.80
2017-12-01T07:30:05.741Z,4.80
2017-12-01T07:32:33.604Z,4.80
2017-12-01T07:35:01.051Z,4.80
2017-12-01T07:37:28.633Z,4.80
2017-12-01T07:39:56.845Z,4.80
2017-12-01T07:42:24.550Z,4.70
2017-12-01T07:48:05.982Z,4.80
2017-12-01T07:50:34.194Z,4.80
2017-12-01T07:53:01.672Z,4.70
2017-12-01T07:55:29.176Z,4.70
2017-12-01T07:57:57.384Z,4.80
2017-12-01T08:00:24.893Z,4.80
2017-12-01T08:02:53.174Z,4.80
2017-12-01T08:05:21.455Z,4.90
2017-12-01T08:07:50.145Z,4.90
2017-12-01T08:10:18.351Z,4.90
2017-12-01T08:12:45.857Z,4.90
2017-12-01T08:15:13.330Z,4.90
2017-12-01T08:17:40.882Z,4.90
2017-12-01T08:20:09.081Z,5.00
2017-12-01T08:22:48.669Z,5.00
2017-12-01T08:25:28.273Z,5.00
2017-12-01T08:27:56.870Z,5.10
2017-12-01T08:30:24.293Z,5.10
2017-12-01T08:32:52.197Z,5.10
2017-12-01T08:35:19.637Z,5.10
2017-12-01T08:37:47.086Z,5.20
2017-12-01T08:40:14.564Z,5.10
2017-12-01T08:42:42.333Z,5.20
2017-12-01T08:45:10.436Z,5.20
2017-12-01T08:47:38.289Z,5.20
2017-12-01T08:50:05.756Z,5.20
2017-12-01T08:52:33.201Z,5.30
2017-12-01T08:55:00.715Z,5.20
2017-12-01T08:57:28.175Z,5.30
2017-12-01T08:59:55.633Z,5.30
2017-12-01T09:02:23.188Z,5.30
2017-12-01T09:04:50.980Z,5.30
2017-12-01T09:07:18.455Z,5.40
2017-12-01T09:09:45.912Z,5.40
2017-12-01T09:12:13.369Z,5.40
2017-12-01T09:14:41.025Z,5.50
2017-12-01T09:17:08.466Z,5.50
2017-12-01T09:19:35.908Z,5.50
2017-12-01T09:22:03.482Z,5.50
2017-12-01T09:24:30.927Z,5.60
2017-12-01T09:26:58.785Z,5.60
2017-12-01T09:29:26.697Z,5.60
2017-12-01T09:31:54.169Z,5.60
2017-12-01T09:34:22.116Z,5.70
2017-12-01T09:36:49.582Z,5.70
2017-12-01T09:39:17.038Z,5.70
2017-12-01T09:41:44.571Z,5.70
2017-12-01T09:44:12.348Z,5.80
2017-12-01T09:46:40.114Z,5.80
2017-12-01T09:49:07.605Z,5.80
2017-12-01T09:51:35.100Z,5.80
2017-12-01T09:54:02.545Z,5.80
2017-12-01T09:56:31.650Z,5.90
2017-12-01T09:58:59.125Z,5.90
2017-12-01T10:01:26.589Z,5.90
2017-12-01T10:03:54.030Z,6.00
2017-12-01T10:06:21.718Z,6.10
2017-12-01T10:08:49.208Z,6.10
2017-12-01T10:11:17.609Z,6.40
2017-12-01T10:13:45.060Z,6.40
2017-12-01T10:16:12.777Z,6.50
2017-12-01T10:18:40.241Z,6.50
2017-12-01T10:21:07.689Z,6.70
2017-12-01T10:23:35.549Z,6.70
2017-12-01T10:26:03.210Z,6.90
2017-12-01T10:28:30.648Z,6.90
2017-12-01T10:30:58.153Z,7.00
2017-12-01T10:33:26.033Z,7.10
2017-12-01T10:35:53.515Z,7.20
2017-12-01T10:38:20.960Z,7.30
2017-12-01T10:40:48.448Z,7.30
2017-12-01T10:43:16.234Z,7.40
2017-12-01T10:45:43.689Z,7.50
2017-12-01T10:48:12.370Z,7.70
2017-12-01T10:50:39.823Z,7.70
2017-12-01T10:53:07.308Z,7.80
2017-12-01T10:55:35.528Z,7.80
2017-12-01T10:58:03.048Z,7.80
2017-12-01T11:00:31.270Z,7.70
2017-12-01T11:02:58.767Z,7.70
2017-12-01T11:05:26.345Z,7.70
2017-12-01T11:07:53.812Z,7.80
2017-12-01T11:10:21.330Z,7.80
2017-12-01T11:12:48.833Z,7.90
2017-12-01T11:15:16.298Z,8.10
2017-12-01T11:17:44.006Z,8.20
2017-12-01T11:20:11.864Z,8.20
2017-12-01T11:22:39.321Z,8.30
2017-12-01T11:25:06.798Z,8.30
2017-12-01T11:27:34.247Z,8.30
2017-12-01T11:30:02.495Z,8.40
2017-12-01T11:32:30.573Z,8.40
2017-12-01T11:34:58.059Z,8.40
2017-12-01T11:37:26.267Z,8.40
2017-12-01T11:39:53.744Z,8.40
2017-12-01T11:42:21.185Z,8.40
2017-12-01T11:44:49.084Z,8.40
2017-12-01T11:47:17.052Z,8.50
2017-12-01T11:49:44.493Z,8.50
2017-12-01T11:52:11.967Z,8.60
2017-12-01T11:54:39.428Z,8.60
2017-12-01T11:57:06.908Z,8.50
2017-12-01T11:59:35.198Z,8.40
2017-12-01T12:02:02.823Z,8.40
2017-12-01T12:04:30.303Z,8.40
2017-12-01T12:06:58.509Z,8.30
2017-12-01T12:09:26.624Z,8.20
2017-12-01T12:11:54.172Z,8.20
2017-12-01T12:14:21.641Z,8.10
2017-12-01T12:16:49.080Z,8.00
2017-12-01T12:19:16.550Z,8.00
2017-12-01T12:21:43.989Z,8.00
2017-12-01T12:24:11.866Z,8.00
2017-12-01T12:26:39.374Z,8.00
2017-12-01T12:29:07.088Z,8.00
2017-12-01T12:31:34.538Z,8.10
2017-12-01T12:34:02.318Z,8.10
2017-12-01T12:36:29.737Z,8.10
2017-12-01T12:38:57.436Z,8.10
2017-12-01T12:41:24.988Z,8.20
2017-12-01T12:43:53.154Z,8.20
2017-12-01T12:46:20.600Z,8.40
2017-12-01T12:48:48.480Z,8.70
2017-12-01T12:51:15.940Z,9.00
2017-12-01T12:53:43.462Z,9.30
2017-12-01T12:56:10.921Z,9.40
2017-12-01T12:58:38.397Z,9.40
2017-12-01T13:01:05.848Z,9.40
2017-12-01T13:03:33.287Z,9.30
2017-12-01T13:06:00.878Z,9.10
2017-12-01T13:08:28.633Z,9.00
2017-12-01T13:10:56.078Z,8.90
2017-12-01T13:13:23.625Z,8.80
2017-12-01T13:15:51.416Z,8.70
2017-12-01T13:18:19.741Z,8.40
2017-12-01T13:20:47.188Z,8.40
2017-12-01T13:23:15.428Z,8.20
2017-12-01T13:25:43.277Z,8.20
2017-12-01T13:28:10.740Z,8.10
2017-12-01T13:30:38.215Z,8.10
2017-12-01T13:33:06.188Z,8.00
2017-12-01T13:35:33.654Z,7.90
2017-12-01T13:38:01.126Z,7.80
2017-12-01T13:40:28.570Z,7.70
2017-12-01T13:42:57.334Z,7.60
2017-12-01T13:45:24.804Z,7.60
2017-12-01T13:47:52.685Z,7.60
2017-12-01T13:50:20.123Z,7.50
2017-12-01T13:52:47.606Z,7.50
2017-12-01T13:55:15.916Z,7.40
2017-12-01T13:57:43.368Z,7.40
2017-12-01T14:00:10.830Z,7.40
2017-12-01T14:02:38.310Z,7.40
2017-12-01T14:05:05.746Z,7.40
2017-12-01T14:07:33.463Z,7.40
2017-12-01T14:10:01.681Z,7.30
2017-12-01T14:12:29.384Z,7.30
2017-12-01T14:14:57.446Z,7.30
2017-12-01T14:17:24.994Z,7.30
2017-12-01T14:19:52.625Z,7.30
2017-12-01T14:22:20.061Z,7.20
2017-12-01T14:24:47.729Z,7.20
2017-12-01T14:27:15.182Z,7.20
2017-12-01T14:29:42.730Z,7.20
2017-12-01T14:32:10.942Z,7.10
2017-12-01T14:34:38.825Z,7.10
2017-12-01T14:37:06.356Z,7.10
2017-12-01T14:39:34.354Z,7.10
2017-12-01T14:42:01.836Z,7.10
2017-12-01T14:44:29.886Z,7.00
2017-12-01T14:46:57.346Z,7.00
2017-12-01T14:49:25.379Z,7.00
2017-12-01T14:51:52.836Z,7.00
2017-12-01T14:54:20.764Z,6.90
2017-12-01T14:56:48.205Z,6.90
2017-12-01T14:59:15.653Z,6.90
2017-12-01T15:01:43.178Z,6.90
2017-12-01T15:04:10.713Z,6.90
2017-12-01T15:06:38.330Z,6.90
2017-12-01T15:09:05.788Z,6.90
2017-12-01T15:11:34.444Z,6.80
2017-12-01T15:14:02.059Z,6.80
2017-12-01T15:16:30.819Z,6.80
2017-12-01T15:18:58.265Z,6.80
2017-12-01T15:21:25.767Z,6.80
2017-12-01T15:23:53.315Z,6.80
2017-12-01T15:26:20.966Z,6.80
2017-12-01T15:28:48.736Z,6.80
2017-12-01T15:31:16.274Z,6.80
2017-12-01T15:33:44.285Z,6.70
2017-12-01T15:36:12.598Z,6.60
2017-12-01T15:38:40.158Z,6.60
2017-12-01T15:41:07.715Z,6.60
2017-12-01T15:43:36.093Z,6.50
2017-12-01T15:46:03.580Z,6.50
2017-12-01T15:48:31.571Z,6.40
2017-12-01T15:50:59.594Z,6.40
2017-12-01T15:53:27.292Z,6.50
2017-12-01T15:55:55.534Z,6.50
2017-12-01T15:58:23.022Z,6.50
2017-12-01T16:00:50.803Z,6.50
2017-12-01T16:03:18.288Z,6.50
2017-12-01T16:05:45.734Z,6.50
2017-12-01T16:08:13.323Z,6.40
2017-12-01T16:10:40.756Z,6.30
2017-12-01T16:13:08.266Z,6.30
2017-12-01T16:15:36.477Z,6.20
2017-12-01T16:18:04.694Z,6.10
2017-12-01T16:20:32.204Z,6.10
2017-12-01T16:23:00.422Z,6.10
2017-12-01T16:25:28.002Z,6.10
2017-12-01T16:27:55.662Z,6.00
2017-12-01T16:30:24.971Z,6.00
2017-12-01T16:33:00.225Z,5.90
2017-12-01T16:35:21.163Z,5.90
2017-12-01T16:37:49.145Z,5.90
2017-12-01T16:40:17.154Z,5.80
2017-12-01T16:42:46.041Z,5.80
2017-12-01T16:45:14.564Z,5.70
2017-12-01T16:47:42.802Z,5.60
2017-12-01T16:50:10.662Z,5.60
2017-12-01T16:52:38.318Z,5.60
2017-12-01T16:55:05.838Z,5.50
2017-12-01T16:57:33.346Z,5.50
2017-12-01T17:00:01.742Z,5.40
2017-12-01T17:02:30.095Z,5.40
2017-12-01T17:04:57.542Z,5.30
2017-12-01T17:07:25.015Z,5.30
2017-12-01T17:09:52.489Z,5.30
2017-12-01T17:12:20.706Z,5.30
2017-12-01T17:14:48.201Z,5.20
2017-12-01T17:17:15.646Z,5.20
2017-12-01T17:19:43.178Z,5.20
2017-12-01T17:22:10.846Z,5.20
2017-12-01T17:24:38.483Z,5.10
2017-12-01T17:27:05.909Z,5.10
2017-12-01T17:29:34.697Z,5.10
2017-12-01T17:32:02.811Z,5.00
2017-12-01T17:34:30.817Z,5.00
2017-12-01T17:36:58.441Z,5.00
2017-12-01T17:39:25.914Z,5.00
2017-12-01T17:41:53.387Z,4.90
2017-12-01T17:44:21.376Z,4.90
2017-12-01T17:46:48.925Z,4.80
2017-12-01T17:49:16.888Z,4.90
2017-12-01T17:51:44.340Z,4.80
2017-12-01T17:54:11.828Z,4.80
2017-12-01T17:56:39.301Z,4.80
2017-12-01T17:59:06.793Z,4.80
2017-12-01T18:01:34.237Z,4.70
2017-12-01T18:04:01.838Z,4.70
2017-12-01T18:06:29.680Z,4.70
2017-12-01T18:08:57.254Z,4.60
2017-12-01T18:11:24.753Z,4.60
2017-12-01T18:13:52.225Z,4.60
2017-12-01T18:16:19.676Z,4.60
2017-12-01T18:18:47.557Z,4.50
2017-12-01T18:21:15.153Z,4.50
2017-12-01T18:23:43.389Z,4.50
2017-12-01T18:26:11.359Z,4.60
2017-12-01T18:28:39.566Z,4.60
2017-12-01T18:31:07.560Z,4.60
2017-12-01T18:33:35.011Z,4.70
2017-12-01T18:36:02.923Z,4.70
2017-12-01T18:38:30.416Z,4.60
2017-12-01T18:40:57.875Z,4.60
2017-12-01T18:43:25.876Z,4.60
2017-12-01T18:45:54.124Z,4.50
2017-12-01T18:48:21.598Z,4.50
2017-12-01T18:50:49.623Z,4.50
2017-12-01T18:53:17.072Z,4.40
2017-12-01T18:55:44.565Z,4.40
2017-12-01T18:58:12.186Z,4.30
2017-12-01T19:00:39.627Z,4.30
2017-12-01T19:03:07.171Z,4.30
2017-12-01T19:05:36.036Z,4.20
2017-12-01T19:08:03.528Z,4.20
2017-12-01T19:10:31.753Z,4.10
2017-12-01T19:12:59.723Z,4.10
2017-12-01T19:15:27.175Z,4.10
2017-12-01T19:17:54.711Z,4.00
2017-12-01T19:20:22.584Z,4.00
2017-12-01T19:22:50.484Z,4.00
2017-12-01T19:25:18.114Z,4.00
2017-12-01T19:27:45.598Z,4.00
2017-12-01T19:30:13.844Z,4.00
2017-12-01T19:32:41.394Z,4.00
2017-12-01T19:35:09.397Z,3.90
2017-12-01T19:37:36.892Z,3.90
2017-12-01T19:40:04.373Z,3.80
2017-12-01T19:42:31.914Z,3.80
2017-12-01T19:45:00.005Z,3.70
2017-12-01T19:47:27.745Z,3.70
2017-12-01T19:49:55.784Z,3.70
2017-12-01T19:52:23.289Z,3.60
2017-12-01T19:54:50.749Z,3.60
2017-12-01T19:57:18.223Z,3.60
2017-12-01T19:59:45.745Z,3.60
2017-12-01T20:02:13.348Z,3.60
2017-12-01T20:04:41.846Z,3.50
2017-12-01T20:07:09.301Z,3.50
2017-12-01T20:09:36.832Z,3.60
2017-12-01T20:12:04.817Z,3.60
2017-12-01T20:14:32.316Z,3.60
2017-12-01T20:17:00.537Z,3.60
2017-12-01T20:19:28.077Z,3.60
2017-12-01T20:21:55.638Z,3.60
2017-12-01T20:24:23.104Z,3.60
2017-12-01T20:26:50.552Z,3.60
2017-12-01T20:29:18.518Z,3.60
2017-12-01T20:31:46.283Z,3.60
2017-12-01T20:34:13.849Z,3.50
2017-12-01T20:36:42.090Z,3.50
2017-12-01T20:39:10.334Z,3.60
2017-12-01T20:41:37.784Z,3.60
2017-12-01T20:44:05.641Z,3.60
2017-12-01T20:46:33.129Z,3.50
2017-12-01T20:49:01.374Z,3.50
2017-12-01T20:51:29.549Z,3.50
2017-12-01T20:53:57.018Z,3.40
2017-12-01T20:56:24.508Z,3.40
2017-12-01T20:58:53.448Z,3.40
2017-12-01T21:01:20.906Z,3.40
2017-12-01T21:03:48.413Z,3.40
2017-12-01T21:06:16.790Z,3.40
2017-12-01T21:08:45.126Z,3.40
2017-12-01T21:11:12.589Z,3.40
2017-12-01T21:13:40.038Z,3.40
2017-12-01T21:16:08.283Z,3.40
2017-12-01T21:18:35.744Z,3.40
2017-12-01T21:21:04.023Z,3.40
2017-12-01T21:23:31.512Z,3.40
2017-12-01T21:25:59.002Z,3.40
2017-12-01T21:28:26.792Z,3.40
2017-12-01T21:30:54.274Z,3.40
2017-12-01T21:33:21.846Z,3.40
2017-12-01T21:35:50.185Z,3.40
2017-12-01T21:38:17.844Z,3.40
2017-12-01T21:40:45.379Z,3.30
2017-12-01T21:43:13.420Z,3.30
2017-12-01T21:45:40.874Z,3.30
2017-12-01T21:48:08.368Z,3.30
2017-12-01T21:50:37.252Z,3.20
2017-12-01T21:53:05.475Z,3.20
2017-12-01T21:55:33.213Z,3.20
2017-12-01T21:58:01.229Z,3.20
2017-12-01T22:00:28.766Z,3.20
2017-12-01T22:02:56.206Z,3.20
2017-12-01T22:05:23.807Z,3.30
2017-12-01T22:07:52.034Z,3.30
2017-12-01T22:10:19.640Z,3.20
2017-12-01T22:12:47.147Z,3.30
2017-12-01T22:15:15.248Z,3.20
2017-12-01T22:17:42.709Z,3.20
2017-12-01T22:20:10.449Z,3.20
2017-12-01T22:22:37.891Z,3.20
2017-12-01T22:25:05.470Z,3.20
2017-12-01T22:27:32.979Z,3.20
2017-12-01T22:30:02.362Z,3.10
2017-12-01T22:32:30.897Z,3.20
2017-12-01T22:34:58.389Z,3.10
2017-12-01T22:37:26.061Z,3.10
2017-12-01T22:39:53.691Z,3.20
2017-12-01T22:42:21.148Z,3.10
2017-12-01T22:44:49.272Z,3.20
2017-12-01T22:47:17.834Z,3.10
2017-12-01T22:49:45.349Z,3.10
2017-12-01T22:52:13.242Z,3.20
2017-12-01T22:54:40.691Z,3.20
2017-12-01T22:57:08.149Z,3.20
2017-12-01T22:59:35.840Z,3.20
2017-12-01T23:02:03.420Z,3.20
2017-12-01T23:04:30.908Z,3.30
2017-12-01T23:06:58.373Z,3.30
2017-12-01T23:09:26.129Z,3.30
2017-12-01T23:11:53.585Z,3.30
2017-12-01T23:14:21.104Z,3.30
2017-12-01T23:16:49.413Z,3.30
2017-12-01T23:19:17.528Z,3.30
2017-12-01T23:21:44.975Z,3.30
2017-12-01T23:24:12.443Z,3.30
2017-12-01T23:26:39.942Z,3.30
2017-12-01T23:29:07.655Z,3.30
2017-12-01T23:31:35.162Z,3.30
2017-12-01T23:34:03.076Z,3.30
2017-12-01T23:36:30.554Z,3.30
2017-12-01T23:38:58.810Z,3.40
2017-12-01T23:41:26.843Z,3.30
2017-12-01T23:43:54.736Z,3.40
2017-12-01T23:46:22.267Z,3.30
2017-12-01T23:48:49.810Z,3.40
2017-12-01T23:51:18.129Z,3.30
2017-12-01T23:53:45.616Z,3.30
2017-12-01T23:56:13.939Z,3.30
2017-12-01T23:58:41.496Z,3.30
